Time;durP1;ratioP1;P1;durP2;ratioP2;P2;SDS_P1;SDS_P2;PMS_P1;PMS_P2;Temp;Humidity;BMP_temperature;BMP_pressure;BME280_temperature;BME280_humidity;BME280_pressure;Samples;Min_cycle;Max_cycle;Signal;HPM_P1;HPM_P2
2021/10/19 00:01:29;;;;;;;19.07;12.80;;;12.20;67.30;;;;;;5044144;28;20362;-46
2021/10/19 00:03:55;;;;;;;17.03;13.97;;;12.50;66.40;;;;;;5043273;28;20205;-48
2021/10/19 00:06:20;;;;;;;15.57;12.27;;;12.80;65.10;;;;;;5042082;28;20222;-49
2021/10/19 00:08:46;;;;;;;15.03;12.53;;;13.00;63.70;;;;;;5044087;28;20226;-50
2021/10/19 00:11:12;;;;;;;16.80;13.27;;;13.10;63.70;;;;;;5042599;28;20245;-49
2021/10/19 00:13:38;;;;;;;15.60;12.20;;;13.20;63.20;;;;;;5046643;28;20679;-45
2021/10/19 00:16:05;;;;;;;16.00;11.53;;;13.20;63.10;;;;;;5048105;28;20201;-49
2021/10/19 00:18:31;;;;;;;15.07;11.73;;;13.20;62.40;;;;;;5039866;28;20785;-48
2021/10/19 00:20:56;;;;;;;13.10;11.70;;;13.10;62.50;;;;;;5046859;28;20443;-48
2021/10/19 00:23:22;;;;;;;14.93;12.57;;;13.00;63.30;;;;;;5041206;28;21179;-45
2021/10/19 00:25:48;;;;;;;17.13;12.40;;;13.10;62.70;;;;;;5043427;28;20559;-47
2021/10/19 00:28:13;;;;;;;15.53;12.57;;;13.10;62.10;;;;;;5046265;28;20196;-49
2021/10/19 00:30:39;;;;;;;15.87;12.00;;;13.20;62.40;;;;;;5042181;28;20537;-47
2021/10/19 00:33:04;;;;;;;14.00;11.73;;;13.30;62.00;;;;;;5045478;28;20578;-46
2021/10/19 00:35:30;;;;;;;13.50;11.37;;;13.40;61.40;;;;;;5045704;28;20212;-48
2021/10/19 00:37:56;;;;;;;14.23;11.07;;;13.30;61.40;;;;;;5044721;28;20315;-49
2021/10/19 00:40:21;;;;;;;13.80;11.57;;;13.20;61.70;;;;;;5042671;28;20637;-49
2021/10/19 00:42:47;;;;;;;13.83;12.30;;;13.00;62.50;;;;;;5045799;28;20250;-48
2021/10/19 00:45:12;;;;;;;14.00;11.80;;;12.90;63.50;;;;;;5039036;28;20370;-49
2021/10/19 00:47:46;;;;;;;14.07;10.60;;;12.70;64.20;;;;;;5047106;28;20192;-48
2021/10/19 00:50:12;;;;;;;16.57;12.10;;;12.50;65.00;;;;;;5041474;28;20260;-46
2021/10/19 00:52:38;;;;;;;19.03;12.47;;;12.30;66.10;;;;;;5042461;28;20886;-48
2021/10/19 00:55:04;;;;;;;15.17;12.63;;;12.20;66.40;;;;;;5041440;28;20292;-45
2021/10/19 00:57:30;;;;;;;14.50;12.67;;;12.10;67.00;;;;;;5041451;28;20516;-45
2021/10/19 00:59:56;;;;;;;18.83;12.17;;;12.00;68.00;;;;;;5039824;28;21373;-48
2021/10/19 01:02:22;;;;;;;13.47;10.73;;;12.10;67.00;;;;;;5044442;28;20485;-49
2021/10/19 01:04:47;;;;;;;17.00;12.80;;;12.10;67.10;;;;;;5041823;28;20197;-50
2021/10/19 01:07:15;;;;;;;15.50;11.97;;;12.10;67.30;;;;;;5043974;28;20607;-48
2021/10/19 01:09:40;;;;;;;16.07;12.10;;;12.10;67.50;;;;;;5041290;28;20698;-50
2021/10/19 01:12:08;;;;;;;14.47;12.77;;;12.10;67.60;;;;;;5036456;28;20467;-48
2021/10/19 01:14:34;;;;;;;19.47;12.43;;;12.00;67.70;;;;;;5044528;28;20196;-50
2021/10/19 01:17:00;;;;;;;17.33;11.93;;;11.60;69.10;;;;;;5040577;28;20938;-46
2021/10/19 01:19:25;;;;;;;15.10;13.07;;;11.40;70.00;;;;;;5039232;28;20454;-51
2021/10/19 01:21:57;;;;;;;16.40;12.37;;;11.30;70.60;;;;;;5041978;28;20476;-49
2021/10/19 01:24:23;;;;;;;15.80;12.67;;;11.30;71.00;;;;;;5042293;28;20652;-47
2021/10/19 01:26:49;;;;;;;18.33;12.50;;;11.40;70.90;;;;;;5041299;28;20487;-50
2021/10/19 01:29:15;;;;;;;14.17;11.87;;;11.30;70.30;;;;;;5040457;28;20343;-49
2021/10/19 01:31:53;;;;;;;14.10;11.93;;;11.60;70.10;;;;;;5040465;28;20220;-48
2021/10/19 01:34:18;;;;;;;15.67;12.60;;;11.70;69.00;;;;;;5042435;28;20439;-49
2021/10/19 01:36:45;;;;;;;15.90;13.00;;;11.90;68.30;;;;;;5045376;28;20485;-47
2021/10/19 01:39:11;;;;;;;14.33;12.70;;;12.10;67.60;;;;;;5041906;28;20655;-50
2021/10/19 01:41:38;;;;;;;15.93;12.50;;;12.30;66.80;;;;;;5044459;28;20561;-45
2021/10/19 01:44:03;;;;;;;14.10;11.50;;;12.40;65.80;;;;;;5046685;28;20442;-46
2021/10/19 01:46:29;;;;;;;13.40;11.43;;;12.60;65.30;;;;;;5042438;28;20444;-46
2021/10/19 01:48:56;;;;;;;15.03;11.80;;;12.70;64.70;;;;;;5043676;28;20704;-45
2021/10/19 01:51:23;;;;;;;13.83;11.00;;;12.90;64.20;;;;;;5047673;28;20274;-46
2021/10/19 01:53:49;;;;;;;17.33;11.90;;;13.00;63.90;;;;;;5043983;28;20428;-47
2021/10/19 01:56:14;;;;;;;20.50;12.53;;;13.00;63.30;;;;;;5043708;28;20949;-46
2021/10/19 01:58:40;;;;;;;15.57;12.27;;;13.00;63.00;;;;;;5042651;28;20192;-45
2021/10/19 02:01:05;;;;;;;12.93;11.57;;;12.80;63.50;;;;;;5043819;28;20197;-44
2021/10/19 02:03:31;;;;;;;12.80;10.50;;;12.60;64.50;;;;;;5044058;28;20246;-45
2021/10/19 02:05:57;;;;;;;14.27;11.67;;;12.60;64.70;;;;;;5044927;28;20215;-45
2021/10/19 02:08:22;;;;;;;12.80;10.60;;;12.60;64.80;;;;;;5042571;28;20283;-46
2021/10/19 02:10:48;;;;;;;12.73;11.40;;;12.60;64.40;;;;;;5046035;28;20200;-45
2021/10/19 02:13:14;;;;;;;17.47;11.40;;;12.70;64.50;;;;;;5044926;28;20666;-45
2021/10/19 02:15:40;;;;;;;15.60;12.13;;;12.80;64.40;;;;;;5049276;28;20201;-46
2021/10/19 02:18:07;;;;;;;14.47;11.37;;;12.70;64.50;;;;;;5044952;28;20545;-46
2021/10/19 02:20:34;;;;;;;17.70;12.60;;;12.60;65.10;;;;;;5039844;28;20458;-44
2021/10/19 02:23:00;;;;;;;15.60;11.57;;;12.50;65.60;;;;;;5039534;28;20566;-47
2021/10/19 02:25:26;;;;;;;15.63;12.80;;;12.50;65.60;;;;;;5046457;28;20447;-47
2021/10/19 02:27:51;;;;;;;15.87;11.87;;;12.50;65.80;;;;;;5042558;28;20841;-45
2021/10/19 02:30:17;;;;;;;17.40;10.47;;;12.60;65.40;;;;;;5042040;28;20188;-45
2021/10/19 02:32:44;;;;;;;14.20;11.17;;;12.70;65.40;;;;;;5037795;28;20457;-44
2021/10/19 02:35:17;;;;;;;14.37;12.10;;;12.60;65.50;;;;;;5041789;28;20427;-44
2021/10/19 02:37:44;;;;;;;13.60;11.70;;;12.70;65.40;;;;;;5047370;28;20458;-45
2021/10/19 02:40:11;;;;;;;12.57;10.83;;;12.60;65.60;;;;;;5044105;28;20447;-47
2021/10/19 02:42:38;;;;;;;15.40;12.57;;;12.30;66.10;;;;;;5046568;28;20486;-46
2021/10/19 02:45:05;;;;;;;14.77;11.80;;;12.30;66.60;;;;;;5046042;28;20802;-46
2021/10/19 02:47:31;;;;;;;17.33;12.50;;;12.50;66.20;;;;;;5045746;28;20454;-46
2021/10/19 02:49:56;;;;;;;13.90;11.67;;;12.60;65.80;;;;;;5047297;28;20466;-46
2021/10/19 02:52:22;;;;;;;14.80;11.17;;;12.60;65.90;;;;;;5042747;28;20193;-45
2021/10/19 02:54:51;;;;;;;14.30;11.23;;;12.80;65.70;;;;;;5044183;28;20272;-45
2021/10/19 02:57:19;;;;;;;12.63;11.33;;;12.90;65.30;;;;;;5046432;28;20196;-45
2021/10/19 02:59:45;;;;;;;13.60;10.63;;;12.90;65.10;;;;;;5049218;28;20814;-46
2021/10/19 03:02:11;;;;;;;16.63;11.50;;;12.90;65.10;;;;;;5039454;28;20486;-50
2021/10/19 03:04:36;;;;;;;14.17;11.17;;;13.00;64.90;;;;;;5045459;28;20251;-46
2021/10/19 03:07:02;;;;;;;13.67;10.30;;;13.00;64.80;;;;;;5045789;28;20275;-46
2021/10/19 03:09:28;;;;;;;12.80;10.20;;;13.00;64.50;;;;;;5045258;28;20204;-47
2021/10/19 03:11:54;;;;;;;12.97;11.07;;;13.20;64.20;;;;;;5046042;28;20204;-47
2021/10/19 03:14:19;;;;;;;14.13;10.23;;;13.30;63.90;;;;;;5043859;28;21590;-45
2021/10/19 03:16:45;;;;;;;12.00;10.40;;;13.30;63.50;;;;;;5042861;28;20211;-48
2021/10/19 03:19:10;;;;;;;12.07;10.07;;;13.40;63.10;;;;;;5042158;28;20192;-44
2021/10/19 03:21:36;;;;;;;13.53;10.47;;;13.50;62.90;;;;;;5044402;28;20219;-44
2021/10/19 03:24:02;;;;;;;13.07;11.00;;;13.60;62.80;;;;;;5046139;28;20239;-45
2021/10/19 03:26:28;;;;;;;12.53;10.87;;;13.60;62.60;;;;;;5047337;28;20730;-46
2021/10/19 03:28:54;;;;;;;13.00;9.93;;;13.60;63.30;;;;;;5046731;28;20431;-46
2021/10/19 03:31:19;;;;;;;13.63;9.60;;;13.60;62.80;;;;;;5042119;28;20653;-45
2021/10/19 03:33:45;;;;;;;13.10;10.73;;;13.60;62.70;;;;;;5048679;28;20192;-45
2021/10/19 03:36:10;;;;;;;12.50;10.33;;;13.60;62.50;;;;;;5050864;28;20195;-44
2021/10/19 03:38:37;;;;;;;14.20;9.83;;;13.50;62.40;;;;;;5046175;28;20610;-44
2021/10/19 03:41:04;;;;;;;13.70;11.37;;;13.50;62.50;;;;;;5049182;28;20274;-46
2021/10/19 03:43:30;;;;;;;13.90;10.10;;;13.40;62.50;;;;;;5049060;28;20478;-45
2021/10/19 03:45:56;;;;;;;14.07;11.53;;;13.40;62.60;;;;;;5046930;28;20488;-45
2021/10/19 03:48:21;;;;;;;12.90;10.33;;;13.40;62.70;;;;;;5042327;28;20564;-45
2021/10/19 03:50:47;;;;;;;13.60;10.10;;;13.60;62.50;;;;;;5048417;28;20471;-44
2021/10/19 03:53:13;;;;;;;12.40;9.70;;;13.60;62.30;;;;;;5045721;28;20240;-45
2021/10/19 03:55:39;;;;;;;11.73;9.93;;;13.60;62.10;;;;;;5044389;28;20211;-45
2021/10/19 03:58:05;;;;;;;13.50;11.00;;;13.70;62.20;;;;;;5046812;28;20447;-45
2021/10/19 04:00:30;;;;;;;12.00;10.37;;;13.60;62.30;;;;;;5045755;28;20203;-45
2021/10/19 04:02:56;;;;;;;10.50;9.40;;;13.20;63.10;;;;;;5046894;28;20320;-46
2021/10/19 04:05:22;;;;;;;13.00;10.60;;;12.90;64.20;;;;;;5045089;28;20604;-45
2021/10/19 04:07:47;;;;;;;14.57;10.23;;;12.90;64.40;;;;;;5040058;28;20676;-47
2021/10/19 04:10:15;;;;;;;13.53;10.20;;;12.70;64.80;;;;;;5040796;28;20438;-44
2021/10/19 04:12:41;;;;;;;13.20;10.80;;;12.60;65.50;;;;;;5043846;28;20204;-45
2021/10/19 04:15:07;;;;;;;11.90;9.83;;;12.60;65.60;;;;;;5038848;28;20435;-45
2021/10/19 04:17:33;;;;;;;12.10;10.53;;;12.60;66.00;;;;;;5041835;28;20189;-49
2021/10/19 04:19:59;;;;;;;12.87;10.20;;;12.60;65.50;;;;;;5042224;28;20973;-45
2021/10/19 04:22:24;;;;;;;12.30;10.43;;;12.70;65.30;;;;;;5044127;28;20486;-46
2021/10/19 04:24:52;;;;;;;12.40;9.93;;;12.80;65.20;;;;;;5044964;28;20200;-46
2021/10/19 04:27:19;;;;;;;13.10;10.60;;;13.00;64.50;;;;;;5041800;28;20189;-46
2021/10/19 04:29:44;;;;;;;11.63;10.37;;;13.00;64.10;;;;;;5040718;28;20526;-45
2021/10/19 04:32:10;;;;;;;11.40;10.07;;;13.00;64.10;;;;;;5039743;28;20439;-45
2021/10/19 04:34:36;;;;;;;12.83;10.37;;;13.00;63.90;;;;;;5042786;28;20287;-46
2021/10/19 04:37:01;;;;;;;12.80;10.30;;;13.10;64.30;;;;;;5045100;28;20347;-46
2021/10/19 04:39:28;;;;;;;13.20;10.93;;;13.10;64.00;;;;;;5041661;28;20622;-46
2021/10/19 04:41:54;;;;;;;10.83;9.43;;;12.90;64.20;;;;;;5041260;28;20212;-45
2021/10/19 04:44:19;;;;;;;12.77;11.47;;;12.80;65.30;;;;;;5036208;28;20562;-45
2021/10/19 04:46:45;;;;;;;12.97;9.90;;;12.80;65.20;;;;;;5050076;28;20530;-46
2021/10/19 04:49:11;;;;;;;15.13;9.93;;;13.00;65.00;;;;;;5044047;28;20722;-46
2021/10/19 04:51:36;;;;;;;12.73;10.57;;;13.10;64.60;;;;;;5041633;28;20267;-49
2021/10/19 04:54:02;;;;;;;13.70;10.43;;;13.00;64.50;;;;;;5039908;28;20236;-48
2021/10/19 04:56:27;;;;;;;12.40;10.37;;;13.00;64.90;;;;;;5042633;28;20203;-47
2021/10/19 04:58:53;;;;;;;11.47;9.60;;;13.00;64.80;;;;;;5042853;28;20247;-45
2021/10/19 05:01:19;;;;;;;12.97;10.83;;;12.90;65.30;;;;;;5040819;28;20196;-45
2021/10/19 05:03:46;;;;;;;12.43;10.57;;;12.90;65.40;;;;;;5043704;28;20729;-46
2021/10/19 05:06:16;;;;;;;11.17;9.60;;;12.90;65.20;;;;;;5040555;28;20232;-46
2021/10/19 05:08:41;;;;;;;12.10;10.00;;;13.00;65.50;;;;;;5039264;28;20925;-48
2021/10/19 05:11:07;;;;;;;10.93;7.00;;;13.10;64.80;;;;;;5033626;28;20501;-49
2021/10/19 05:13:33;;;;;;;12.80;7.90;;;13.20;68.40;;;;;;5046050;28;20195;-45
2021/10/19 05:15:58;;;;;;;11.27;8.80;;;13.50;72.70;;;;;;5041917;28;20197;-46
2021/10/19 05:18:24;;;;;;;10.17;8.50;;;13.90;68.80;;;;;;5038221;28;21539;-46
2021/10/19 05:20:49;;;;;;;10.03;8.20;;;14.30;64.90;;;;;;5037326;28;20188;-48
2021/10/19 05:23:15;;;;;;;8.10;7.27;;;14.50;62.30;;;;;;5042754;28;20236;-47
2021/10/19 05:25:41;;;;;;;11.27;8.90;;;14.70;61.10;;;;;;5039270;28;20197;-44
2021/10/19 05:28:06;;;;;;;9.37;8.47;;;14.90;60.50;;;;;;5042111;28;20275;-46
2021/10/19 05:30:32;;;;;;;11.53;8.50;;;14.90;59.20;;;;;;5037774;28;20265;-44
2021/10/19 05:32:58;;;;;;;10.40;9.30;;;14.60;58.80;;;;;;5038856;28;20220;-44
2021/10/19 05:35:23;;;;;;;11.90;7.77;;;14.70;59.60;;;;;;5038333;28;20195;-47
2021/10/19 05:37:49;;;;;;;12.57;9.07;;;14.70;59.00;;;;;;5041693;28;20283;-44
2021/10/19 05:40:15;;;;;;;10.00;8.20;;;14.80;59.00;;;;;;5046097;28;20196;-45
2021/10/19 05:42:40;;;;;;;11.10;10.00;;;14.90;59.00;;;;;;5048980;28;20624;-44
2021/10/19 05:45:06;;;;;;;11.43;9.27;;;14.90;60.40;;;;;;5043392;28;20197;-47
2021/10/19 05:47:32;;;;;;;9.33;8.50;;;15.00;59.20;;;;;;5050391;28;20198;-44
2021/10/19 05:49:59;;;;;;;10.83;8.83;;;14.50;58.90;;;;;;5046849;28;20958;-45
2021/10/19 05:52:25;;;;;;;10.93;8.90;;;14.30;59.40;;;;;;5047506;28;20943;-47
2021/10/19 05:54:50;;;;;;;13.73;8.50;;;14.50;59.50;;;;;;5043859;28;20443;-44
2021/10/19 05:57:16;;;;;;;10.10;9.10;;;14.40;59.60;;;;;;5043266;28;20195;-44
2021/10/19 05:59:42;;;;;;;11.03;9.13;;;14.40;60.60;;;;;;5043567;28;20196;-45
2021/10/19 06:02:07;;;;;;;10.50;9.40;;;14.60;59.60;;;;;;5049491;28;20253;-46
2021/10/19 06:04:33;;;;;;;9.23;8.33;;;14.70;59.80;;;;;;5048765;28;20670;-46
2021/10/19 06:07:00;;;;;;;10.57;9.20;;;14.90;59.00;;;;;;5043635;28;20224;-44
2021/10/19 06:09:27;;;;;;;10.00;7.63;;;14.90;58.80;;;;;;5034557;28;20193;-44
2021/10/19 06:11:53;;;;;;;10.00;9.00;;;15.00;58.80;;;;;;5046613;28;20501;-44
2021/10/19 06:14:20;;;;;;;15.33;8.90;;;14.90;58.70;;;;;;5048600;28;20442;-44
2021/10/19 06:16:45;;;;;;;12.07;8.47;;;14.80;58.80;;;;;;5039918;28;20492;-45
2021/10/19 06:19:12;;;;;;;10.50;9.40;;;14.80;58.80;;;;;;5049711;28;20431;-44
2021/10/19 06:21:39;;;;;;;10.50;9.20;;;14.70;59.10;;;;;;5050942;28;20279;-44
2021/10/19 06:24:04;;;;;;;10.23;8.80;;;14.80;59.00;;;;;;5053282;28;20438;-44
2021/10/19 06:26:35;;;;;;;11.47;9.30;;;14.70;59.10;;;;;;5054797;28;20435;-44
2021/10/19 06:29:02;;;;;;;9.13;8.20;;;14.70;59.20;;;;;;5047494;28;20192;-50
2021/10/19 06:31:27;;;;;;;14.90;8.97;;;14.80;59.10;;;;;;5052954;28;20426;-45
2021/10/19 06:33:53;;;;;;;11.37;9.50;;;14.80;59.00;;;;;;5054079;28;20427;-48
2021/10/19 06:36:18;;;;;;;9.77;8.60;;;14.90;58.80;;;;;;5052497;28;20189;-43
2021/10/19 06:38:44;;;;;;;11.90;9.10;;;15.00;58.40;;;;;;5050650;28;20610;-43
2021/10/19 06:41:09;;;;;;;10.50;8.20;;;15.10;58.30;;;;;;5051358;28;20197;-44
2021/10/19 06:43:35;;;;;;;11.10;9.00;;;15.10;58.20;;;;;;5038547;28;20230;-46
2021/10/19 06:46:01;;;;;;;12.37;9.33;;;15.20;58.30;;;;;;5050505;28;20245;-47
2021/10/19 06:48:26;;;;;;;11.17;8.73;;;15.20;58.30;;;;;;5053091;28;20557;-43
2021/10/19 06:50:52;;;;;;;10.90;9.80;;;15.20;58.20;;;;;;5046357;28;20538;-43
2021/10/19 06:53:19;;;;;;;14.20;9.77;;;15.30;58.20;;;;;;5040043;28;20208;-46
2021/10/19 06:55:45;;;;;;;10.10;9.10;;;15.40;58.20;;;;;;5047946;28;20275;-44
2021/10/19 06:58:11;;;;;;;11.67;9.80;;;15.40;58.00;;;;;;5051003;28;20861;-44
2021/10/19 07:00:36;;;;;;;11.07;9.20;;;15.50;57.90;;;;;;5049575;28;20193;-44
2021/10/19 07:03:02;;;;;;;10.90;9.20;;;15.50;57.60;;;;;;5052371;28;20274;-46
2021/10/19 07:05:28;;;;;;;10.20;9.10;;;15.40;57.90;;;;;;5050262;28;20234;-45
2021/10/19 07:07:53;;;;;;;11.00;9.20;;;15.40;58.00;;;;;;5044211;28;20841;-46
2021/10/19 07:10:20;;;;;;;12.30;9.47;;;15.20;58.80;;;;;;5047074;28;20482;-44
2021/10/19 07:12:46;;;;;;;13.77;11.10;;;15.40;58.50;;;;;;5048936;28;20193;-46
2021/10/19 07:15:12;;;;;;;10.13;8.80;;;15.40;58.30;;;;;;5049746;28;20434;-43
2021/10/19 07:17:38;;;;;;;10.33;9.33;;;15.50;58.30;;;;;;5052298;28;20925;-46
2021/10/19 07:20:06;;;;;;;12.10;9.33;;;15.60;58.20;;;;;;5050458;28;20197;-44
2021/10/19 07:22:32;;;;;;;12.30;9.07;;;15.70;57.90;;;;;;5030561;28;20486;-44
2021/10/19 07:24:59;;;;;;;9.63;8.63;;;15.60;57.80;;;;;;5050699;28;21491;-45
2021/10/19 07:27:24;;;;;;;10.70;8.47;;;15.40;58.30;;;;;;5052123;28;20208;-43
2021/10/19 07:29:50;;;;;;;11.17;8.40;;;15.50;58.40;;;;;;5052712;28;20423;-47
2021/10/19 07:32:16;;;;;;;8.57;7.80;;;15.60;58.50;;;;;;5052003;28;20565;-43
2021/10/19 07:34:41;;;;;;;12.77;9.33;;;15.70;58.40;;;;;;5052088;28;20196;-45
2021/10/19 07:37:07;;;;;;;9.83;8.07;;;15.80;58.30;;;;;;5052549;28;20251;-44
2021/10/19 07:39:32;;;;;;;14.03;9.10;;;15.80;58.40;;;;;;5050811;28;20737;-44
2021/10/19 07:41:58;;;;;;;10.83;8.07;;;15.90;58.40;;;;;;5052050;28;20212;-44
2021/10/19 07:44:24;;;;;;;12.27;9.07;;;15.90;58.60;;;;;;5052456;28;20195;-46
2021/10/19 07:46:52;;;;;;;11.73;8.83;;;16.00;58.60;;;;;;5053300;28;20192;-44
2021/10/19 07:49:21;;;;;;;11.67;7.90;;;16.00;58.70;;;;;;5051056;28;20233;-43
2021/10/19 07:51:47;;;;;;;9.03;8.13;;;16.10;59.00;;;;;;5053080;28;20922;-44
2021/10/19 07:54:13;;;;;;;14.47;8.90;;;16.10;58.80;;;;;;5049526;28;20444;-46
2021/10/19 07:56:39;;;;;;;10.20;9.10;;;16.10;58.70;;;;;;5051477;28;20193;-43
2021/10/19 07:59:08;;;;;;;12.50;11.13;;;16.10;59.10;;;;;;5052042;28;20509;-44
2021/10/19 08:01:34;;;;;;;12.73;9.63;;;16.10;60.40;;;;;;5052384;28;20272;-48
2021/10/19 08:04:00;;;;;;;11.83;10.60;;;15.90;60.90;;;;;;5048257;28;20435;-45
2021/10/19 08:06:26;;;;;;;15.93;14.10;;;15.90;61.50;;;;;;5045452;28;20427;-44
2021/10/19 08:08:52;;;;;;;13.90;12.50;;;16.00;62.40;;;;;;5052236;28;20794;-43
2021/10/19 08:11:17;;;;;;;11.93;10.70;;;16.10;62.60;;;;;;5050927;28;20435;-45
2021/10/19 08:13:43;;;;;;;13.47;10.63;;;16.20;62.50;;;;;;5051211;28;20258;-45
2021/10/19 08:16:09;;;;;;;16.63;12.80;;;16.20;62.30;;;;;;5051319;28;20204;-47
2021/10/19 08:18:34;;;;;;;13.57;12.17;;;16.30;62.10;;;;;;5050650;28;20204;-43
2021/10/19 08:21:00;;;;;;;16.77;14.73;;;16.40;62.00;;;;;;5049915;28;20267;-49
2021/10/19 08:23:27;;;;;;;15.80;13.50;;;16.50;61.80;;;;;;5048617;28;20256;-45
2021/10/19 08:25:53;;;;;;;17.40;14.60;;;16.30;61.50;;;;;;5047683;28;20227;-47
2021/10/19 08:28:30;;;;;;;16.53;12.33;;;16.30;61.70;;;;;;5043219;28;20443;-44
2021/10/19 08:30:56;;;;;;;17.10;12.77;;;16.00;62.30;;;;;;5048151;28;20431;-44
2021/10/19 08:33:22;;;;;;;13.27;11.87;;;16.10;62.40;;;;;;5049589;28;20454;-46
2021/10/19 08:35:47;;;;;;;13.53;11.50;;;16.10;62.20;;;;;;5047284;28;20434;-45
2021/10/19 08:38:13;;;;;;;16.20;12.00;;;16.10;61.40;;;;;;5050298;28;20335;-48
2021/10/19 08:40:41;;;;;;;16.33;11.53;;;15.90;61.20;;;;;;5047577;28;20339;-44
2021/10/19 08:43:06;;;;;;;12.57;9.37;;;15.90;61.50;;;;;;5049145;28;20482;-45
2021/10/19 08:45:32;;;;;;;14.07;10.77;;;15.80;60.70;;;;;;5045529;28;20435;-48
2021/10/19 08:48:00;;;;;;;11.77;9.90;;;15.80;61.80;;;;;;5042141;28;20196;-47
2021/10/19 08:50:26;;;;;;;10.50;9.50;;;16.00;61.50;;;;;;5050747;28;20239;-45
2021/10/19 08:52:52;;;;;;;10.60;9.50;;;16.10;61.70;;;;;;5043915;28;20474;-43
2021/10/19 08:55:18;;;;;;;11.63;9.50;;;16.10;62.20;;;;;;5041954;28;20456;-44
2021/10/19 08:57:44;;;;;;;10.97;9.83;;;16.30;61.90;;;;;;5050637;28;20528;-44
2021/10/19 09:00:10;;;;;;;11.63;9.53;;;16.40;61.90;;;;;;5050304;28;20427;-43
2021/10/19 09:02:44;;;;;;;10.13;9.10;;;16.50;61.80;;;;;;5045756;28;20221;-47
2021/10/19 09:05:16;;;;;;;11.03;9.93;;;16.60;61.70;;;;;;5044220;28;20451;-43
2021/10/19 09:07:54;;;;;;;18.83;10.60;;;16.60;61.60;;;;;;5047104;28;20573;-44
2021/10/19 09:10:19;;;;;;;10.50;9.20;;;16.20;62.20;;;;;;5046980;28;20760;-45
2021/10/19 09:12:59;;;;;;;11.73;10.50;;;16.10;63.30;;;;;;5050417;28;20446;-43
2021/10/19 09:15:27;;;;;;;13.20;9.37;;;15.90;63.90;;;;;;5051432;28;20201;-44
2021/10/19 09:17:53;;;;;;;11.83;9.70;;;16.00;64.30;;;;;;5042061;28;20474;-45
2021/10/19 09:20:19;;;;;;;9.60;8.70;;;16.00;63.70;;;;;;5049972;28;20440;-43
2021/10/19 09:22:58;;;;;;;9.47;8.57;;;16.20;62.90;;;;;;5043369;28;20515;-45
2021/10/19 09:25:26;;;;;;;9.20;7.10;;;16.30;62.30;;;;;;5050931;28;20501;-48
2021/10/19 09:27:52;;;;;;;8.40;7.60;;;16.20;62.60;;;;;;5050098;28;20737;-43
2021/10/19 09:30:30;;;;;;;10.40;7.03;;;15.80;62.30;;;;;;5048037;28;20556;-45
2021/10/19 09:32:55;;;;;;;7.70;6.60;;;15.40;64.30;;;;;;5046253;28;20852;-43
2021/10/19 09:35:21;;;;;;;6.83;6.17;;;15.60;65.90;;;;;;5050321;28;20467;-43
2021/10/19 09:38:03;;;;;;;6.40;5.80;;;15.70;65.40;;;;;;5047753;28;20303;-44
2021/10/19 09:40:44;;;;;;;6.10;5.37;;;15.90;65.40;;;;;;5037408;28;20607;-45
2021/10/19 09:43:12;;;;;;;6.50;5.90;;;15.90;65.60;;;;;;5046421;28;20493;-43
2021/10/19 09:45:43;;;;;;;8.10;4.93;;;15.70;66.10;;;;;;5046580;28;20923;-43
2021/10/19 09:48:14;;;;;;;5.67;5.10;;;15.80;66.60;;;;;;5046899;28;20471;-45
2021/10/19 09:50:41;;;;;;;4.77;4.27;;;15.90;66.40;;;;;;5041012;28;20471;-43
2021/10/19 09:53:11;;;;;;;5.53;4.90;;;15.90;66.70;;;;;;5048940;28;20437;-43
2021/10/19 09:55:38;;;;;;;6.97;5.70;;;15.70;67.10;;;;;;5044158;28;20443;-43
2021/10/19 09:58:04;;;;;;;5.97;5.27;;;15.70;68.00;;;;;;5049898;28;20430;-43
2021/10/19 10:00:33;;;;;;;4.97;4.47;;;15.80;68.60;;;;;;5041420;28;20427;-44
2021/10/19 10:03:04;;;;;;;5.10;4.20;;;16.00;68.80;;;;;;5048700;28;20487;-44
2021/10/19 10:05:31;;;;;;;5.27;4.00;;;16.20;68.30;;;;;;5049726;28;20450;-46
2021/10/19 10:07:57;;;;;;;5.77;3.47;;;16.50;67.90;;;;;;5033274;28;20998;-44
2021/10/19 10:10:24;;;;;;;4.90;3.67;;;16.70;67.20;;;;;;5047181;28;20435;-44
2021/10/19 10:13:03;;;;;;;5.97;4.03;;;16.70;67.60;;;;;;5048490;28;20430;-43
2021/10/19 10:15:34;;;;;;;5.37;3.50;;;17.00;66.60;;;;;;5050034;28;20462;-44
2021/10/19 10:18:06;;;;;;;3.57;3.23;;;17.00;66.00;;;;;;5049419;28;20473;-44
2021/10/19 10:20:58;;;;;;;5.07;3.90;;;17.10;66.20;;;;;;5044904;28;20526;-44
2021/10/19 10:23:28;;;;;;;4.90;4.37;;;16.90;66.20;;;;;;5043248;28;20525;-44
2021/10/19 10:25:55;;;;;;;4.00;3.70;;;16.90;66.30;;;;;;5050003;28;20470;-44
2021/10/19 10:28:34;;;;;;;5.00;3.77;;;17.10;65.70;;;;;;5047743;28;20477;-44
2021/10/19 10:31:16;;;;;;;4.10;3.70;;;16.90;65.20;;;;;;5046565;28;20540;-43
2021/10/19 10:33:44;;;;;;;4.30;3.90;;;16.60;65.40;;;;;;5046942;28;20439;-44
2021/10/19 10:36:13;;;;;;;4.20;3.80;;;16.70;65.90;;;;;;5047956;28;20496;-44
2021/10/19 10:38:53;;;;;;;3.90;3.50;;;16.70;66.30;;;;;;5049548;28;20458;-44
2021/10/19 10:41:19;;;;;;;4.17;3.70;;;16.80;65.50;;;;;;5038163;28;20438;-45
2021/10/19 10:43:55;;;;;;;9.23;4.00;;;16.60;65.30;;;;;;5040372;28;20481;-44
2021/10/19 10:46:21;;;;;;;4.33;4.03;;;16.60;66.10;;;;;;5048454;28;20200;-44
2021/10/19 10:48:48;;;;;;;4.40;4.00;;;16.80;65.40;;;;;;5047985;28;20873;-44
2021/10/19 10:51:23;;;;;;;4.83;4.43;;;16.70;65.90;;;;;;5049845;28;20234;-45
2021/10/19 10:53:49;;;;;;;4.57;4.13;;;16.90;66.00;;;;;;5042147;28;20439;-45
2021/10/19 10:56:16;;;;;;;4.40;4.00;;;16.90;65.00;;;;;;5046418;28;20489;-44
2021/10/19 10:58:43;;;;;;;5.23;4.30;;;16.80;65.50;;;;;;5049702;28;20288;-44
2021/10/19 11:01:31;;;;;;;4.70;4.30;;;16.70;66.30;;;;;;5045834;28;20519;-44
2021/10/19 11:04:08;;;;;;;4.40;4.00;;;16.80;66.10;;;;;;5049357;28;20847;-48
2021/10/19 11:06:35;;;;;;;5.00;4.33;;;16.90;66.00;;;;;;5050003;28;20482;-44
2021/10/19 11:09:06;;;;;;;9.70;4.20;;;17.10;65.30;;;;;;5052319;28;20434;-45
2021/10/19 11:11:38;;;;;;;4.60;4.17;;;17.00;64.90;;;;;;5052580;28;20427;-44
2021/10/19 11:14:06;;;;;;;4.57;4.17;;;17.00;65.20;;;;;;5051347;28;20438;-44
2021/10/19 11:16:36;;;;;;;4.70;4.27;;;17.10;65.40;;;;;;5047025;28;20515;-44
2021/10/19 11:19:04;;;;;;;5.23;4.20;;;17.30;65.00;;;;;;5050828;28;20776;-46
2021/10/19 11:21:32;;;;;;;5.37;4.40;;;17.50;64.50;;;;;;5053111;28;20780;-44
2021/10/19 11:23:58;;;;;;;4.50;3.70;;;17.80;63.50;;;;;;5047769;28;20840;-45
2021/10/19 11:26:24;;;;;;;5.57;4.30;;;17.80;62.90;;;;;;5047591;28;20427;-44
2021/10/19 11:28:53;;;;;;;4.13;3.80;;;18.00;63.30;;;;;;5040689;28;20440;-44
2021/10/19 11:31:18;;;;;;;5.67;3.37;;;18.20;62.20;;;;;;5050819;28;20479;-44
2021/10/19 11:33:45;;;;;;;4.03;3.63;;;18.40;61.70;;;;;;5052064;28;20435;-45
2021/10/19 11:36:13;;;;;;;3.53;2.90;;;18.50;60.80;;;;;;5050150;28;20648;-45
2021/10/19 11:38:51;;;;;;;3.40;3.10;;;18.30;60.70;;;;;;5051625;28;20856;-44
2021/10/19 11:41:20;;;;;;;3.50;3.20;;;18.30;60.70;;;;;;5054191;28;20435;-44
2021/10/19 11:43:50;;;;;;;6.23;3.50;;;18.30;61.10;;;;;;5044573;28;20494;-44
2021/10/19 11:46:19;;;;;;;3.70;3.40;;;18.60;60.60;;;;;;5047557;28;20435;-45
2021/10/19 11:48:47;;;;;;;4.83;3.50;;;18.70;59.90;;;;;;5046723;28;20939;-46
2021/10/19 11:51:14;;;;;;;4.00;3.50;;;18.90;59.50;;;;;;5050283;28;20430;-44
2021/10/19 11:53:42;;;;;;;6.30;3.10;;;19.10;58.70;;;;;;5049610;28;20947;-46
2021/10/19 11:56:09;;;;;;;5.17;4.03;;;19.20;58.40;;;;;;5045014;28;20523;-44
2021/10/19 11:58:35;;;;;;;4.37;3.23;;;19.30;58.20;;;;;;5046711;28;20443;-43
2021/10/19 12:01:01;;;;;;;8.23;3.37;;;19.60;57.80;;;;;;5047876;28;20431;-44
2021/10/19 12:03:31;;;;;;;3.50;3.20;;;19.80;57.10;;;;;;5051649;28;20235;-43
2021/10/19 12:05:58;;;;;;;3.27;2.93;;;20.00;56.50;;;;;;5049039;28;20435;-43
2021/10/19 12:08:31;;;;;;;3.47;3.17;;;20.20;56.30;;;;;;5048824;28;20518;-44
2021/10/19 12:11:06;;;;;;;3.87;2.90;;;20.20;56.20;;;;;;5051461;28;20450;-43
2021/10/19 12:13:32;;;;;;;3.63;3.10;;;20.30;56.20;;;;;;5052560;28;20443;-44
2021/10/19 12:15:59;;;;;;;4.40;3.40;;;20.40;55.90;;;;;;5051522;28;20442;-43
2021/10/19 12:18:24;;;;;;;2.90;2.70;;;20.50;56.10;;;;;;5050622;28;20189;-44
2021/10/19 12:20:50;;;;;;;3.10;2.13;;;20.50;55.70;;;;;;5050219;28;20858;-43
2021/10/19 12:23:18;;;;;;;3.30;3.00;;;20.40;55.60;;;;;;5051974;28;20227;-43
2021/10/19 12:25:52;;;;;;;2.20;2.07;;;20.30;55.40;;;;;;5051742;28;20204;-43
2021/10/19 12:28:26;;;;;;;2.57;2.37;;;20.40;55.80;;;;;;5049730;28;20439;-44
2021/10/19 12:30:53;;;;;;;2.67;2.47;;;20.40;55.60;;;;;;5048148;28;20450;-44
2021/10/19 12:33:21;;;;;;;2.90;2.67;;;20.60;55.50;;;;;;5052682;28;20796;-44
2021/10/19 12:35:57;;;;;;;3.80;2.97;;;20.80;55.30;;;;;;5051897;28;20431;-45